Main page
METAR-TAF:

METAR-TAF

Airports :

Shaikh Zayed International Airport

Rahim Yar Khan, Pakistan

latitude: 28-23-02N, longitude: 70-16-47E, elevation: 83 m

METAR: missing

Time: 10:57 (05:57 UTC)

Forecast

The report was made 7 hours and 57 minutes ago, at 22:00 UTC
Forecast valid from 25 at 00 UTC to 25 at 18 UTC
Wind 10 kt from the Southwest
Visibility: 4000 m
Few clouds at a height of 12000 ft
smoke

TAF: OPRK 242200Z 2500/2518 23010KT 4000 FU FEW120 TN27/2501Z TX40/2510Z

Weather observations and forecasts of more than 4000 airports (METAR and TAF reports).

The available stations are represented by yellow and red dots on the map.

Hover mouse over dot to see the name of the station.

Then click to see weather observations and forecasts.

To change the map : click on the green buttons with a black cross to zoom in, on the green button with a dash to zoom out, or on the green arrows for adjacent maps.


METAR-TAF: